Time;durP1;ratioP1;P1;durP2;ratioP2;P2;SDS_P1;SDS_P2;PMS_P1;PMS_P2;Temp;Humidity;BMP_temperature;BMP_pressure;BME280_temperature;BME280_humidity;BME280_pressure;Samples;Min_cycle;Max_cycle;Signal;HPM_P1;HPM_P2
2023/12/11 00:03:37;;;;;;;19.90;2.53;;;;;;;13.84;81.51;99137.38;8283214;28;20037;-59
2023/12/11 00:07:37;;;;;;;21.33;2.35;;;;;;;13.82;81.62;99141.34;8309173;28;20048;-60
2023/12/11 00:11:38;;;;;;;15.82;2.35;;;;;;;13.89;81.02;99128.66;8330033;28;20061;-58
2023/12/11 00:15:39;;;;;;;18.08;2.60;;;;;;;13.99;80.46;99134.59;8275528;28;20537;-59
2023/12/11 00:19:39;;;;;;;18.98;2.30;;;;;;;13.93;80.81;99140.00;8282293;28;20307;-58
2023/12/11 00:23:40;;;;;;;19.73;2.90;;;;;;;14.05;79.72;99146.53;8251114;28;20059;-59
2023/12/11 00:27:40;;;;;;;23.95;2.80;;;;;;;14.02;79.89;99146.94;8247849;28;20298;-59
2023/12/11 00:31:41;;;;;;;20.50;2.33;;;;;;;13.97;80.07;99133.97;8246083;28;20325;-59
2023/12/11 00:35:43;;;;;;;28.33;3.53;;;;;;;14.04;79.84;99145.72;8255971;28;20452;-58
2023/12/11 00:39:43;;;;;;;17.48;2.90;;;;;;;13.88;80.65;99129.69;8244614;28;20371;-58
2023/12/11 00:43:44;;;;;;;20.85;2.83;;;;;;;13.80;81.10;99148.84;8302549;28;20045;-60
2023/12/11 00:47:44;;;;;;;19.77;3.17;;;;;;;13.78;81.66;99153.63;8348116;28;20492;-60
2023/12/11 00:51:48;;;;;;;16.38;2.33;;;;;;;13.75;81.92;99146.72;8349952;28;20045;-60
2023/12/11 00:55:49;;;;;;;18.03;2.50;;;;;;;13.72;82.40;99146.25;8343843;28;20499;-60
2023/12/11 00:59:49;;;;;;;17.00;2.28;;;;;;;13.76;82.18;99148.38;8343739;28;20762;-63
2023/12/11 01:03:50;;;;;;;20.70;2.45;;;;;;;13.81;82.05;99156.81;8352607;28;20047;-56
2023/12/11 01:07:50;;;;;;;20.75;3.13;;;;;;;13.87;81.64;99157.06;8338891;28;20407;-56
2023/12/11 01:11:50;;;;;;;15.00;2.50;;;;;;;13.92;81.60;99158.16;8342432;28;20036;-55
2023/12/11 01:15:51;;;;;;;17.38;2.63;;;;;;;13.95;81.18;99146.91;8340301;28;20128;-57
2023/12/11 01:19:52;;;;;;;20.05;2.60;;;;;;;13.87;82.00;99155.16;8349292;28;20052;-56
2023/12/11 01:23:52;;;;;;;17.60;2.13;;;;;;;13.82;81.35;99146.78;8355270;28;20373;-58
2023/12/11 01:27:53;;;;;;;23.85;3.08;;;;;;;13.78;81.43;99150.91;8353819;28;20042;-58
2023/12/11 01:31:53;;;;;;;26.33;3.28;;;;;;;13.57;82.42;99145.47;8359899;28;20045;-57
2023/12/11 01:35:54;;;;;;;19.20;2.70;;;;;;;13.58;82.29;99147.16;8358480;28;20060;-57
2023/12/11 01:39:54;;;;;;;16.48;2.72;;;;;;;13.67;81.74;99148.72;8357141;28;20044;-58
2023/12/11 01:43:55;;;;;;;23.05;3.50;;;;;;;13.65;82.48;99162.50;8358297;28;20048;-56
2023/12/11 01:47:56;;;;;;;15.77;2.38;;;;;;;13.65;82.18;99156.22;8320651;28;20087;-58
2023/12/11 01:51:58;;;;;;;27.48;2.80;;;;;;;13.70;82.00;99160.00;8290629;28;20328;-58
2023/12/11 01:55:58;;;;;;;26.13;2.90;;;;;;;13.69;82.28;99166.50;8290143;28;20338;-58
2023/12/11 02:00:00;;;;;;;19.67;2.75;;;;;;;13.68;82.39;99169.41;8263039;28;20400;-58
2023/12/11 02:04:00;;;;;;;21.02;3.22;;;;;;;13.74;82.01;99155.06;8260286;28;20060;-59
2023/12/11 02:08:01;;;;;;;28.65;3.38;;;;;;;13.76;82.00;99158.44;8262528;28;20120;-59
2023/12/11 02:12:01;;;;;;;16.90;2.42;;;;;;;13.66;82.17;99147.00;8277607;28;20048;-59
2023/12/11 02:16:02;;;;;;;24.45;2.88;;;;;;;13.59;82.08;99141.53;8311225;28;20279;-59
2023/12/11 02:20:04;;;;;;;19.10;2.97;;;;;;;13.71;80.45;99133.72;8261526;28;20110;-59
2023/12/11 02:24:18;;;;;;;21.25;3.00;;;;;;;13.81;79.30;99136.94;8258853;28;20418;-59
2023/12/11 02:28:18;;;;;;;24.67;3.30;;;;;;;13.76;80.00;99131.25;8256811;28;20283;-58
2023/12/11 02:32:19;;;;;;;25.80;2.58;;;;;;;13.77;78.60;99116.63;8258422;28;20044;-59
2023/12/11 02:36:19;;;;;;;25.10;3.53;;;;;;;13.94;77.12;99123.50;8259389;28;20608;-59
2023/12/11 02:40:20;;;;;;;21.75;3.10;;;;;;;13.83;77.19;99107.72;8258188;28;20043;-59
2023/12/11 02:44:20;;;;;;;21.20;3.00;;;;;;;13.68;77.51;99101.50;8260041;28;20627;-59
2023/12/11 02:48:20;;;;;;;19.38;3.10;;;;;;;13.69;77.56;99097.75;8300940;28;20368;-59
2023/12/11 02:52:21;;;;;;;28.88;3.13;;;;;;;13.63;77.33;99093.09;8298006;28;20045;-59
2023/12/11 02:56:22;;;;;;;24.02;3.65;;;;;;;13.63;77.60;99091.22;8325560;28;20151;-58
2023/12/11 03:00:22;;;;;;;20.25;2.60;;;;;;;13.58;77.48;99076.56;8299500;28;20033;-59
2023/12/11 03:04:22;;;;;;;25.33;3.55;;;;;;;13.65;77.40;99066.59;8304097;28;20044;-59
2023/12/11 03:08:23;;;;;;;20.98;3.00;;;;;;;13.66;76.75;99062.84;8301138;28;20719;-59
2023/12/11 03:12:23;;;;;;;26.92;3.00;;;;;;;13.72;76.17;99054.75;8300840;28;20029;-60
2023/12/11 03:16:24;;;;;;;23.13;3.22;;;;;;;13.79;75.40;99049.38;8298721;28;20626;-59
2023/12/11 03:20:24;;;;;;;20.50;2.97;;;;;;;13.86;75.46;99055.69;8299082;28;20046;-59
2023/12/11 03:24:25;;;;;;;16.83;2.45;;;;;;;13.95;75.07;99042.81;8302492;28;20119;-60
2023/12/11 03:28:28;;;;;;;19.95;2.40;;;;;;;13.89;75.48;99036.28;8357198;28;20037;-60
2023/12/11 03:32:29;;;;;;;20.52;3.30;;;;;;;13.69;75.83;99017.13;8356381;28;20500;-61
2023/12/11 03:36:30;;;;;;;20.42;2.63;;;;;;;13.76;75.09;99025.34;8357984;28;20029;-60
2023/12/11 03:40:30;;;;;;;19.00;2.33;;;;;;;13.79;74.70;99022.22;8355970;28;20476;-61
2023/12/11 03:44:31;;;;;;;22.38;3.50;;;;;;;13.73;74.76;99014.88;8350580;28;20037;-60
2023/12/11 03:48:31;;;;;;;16.65;2.95;;;;;;;13.76;74.26;99007.13;8313098;28;20259;-59
2023/12/11 03:52:32;;;;;;;22.55;2.60;;;;;;;13.71;74.63;99003.34;8302297;28;20128;-58
2023/12/11 03:56:32;;;;;;;19.85;2.00;;;;;;;13.72;74.78;99010.44;8306234;28;20288;-59
2023/12/11 04:00:33;;;;;;;18.90;2.20;;;;;;;13.79;74.35;99005.94;8307740;28;20048;-59
2023/12/11 04:04:33;;;;;;;21.63;2.95;;;;;;;13.79;74.34;98995.06;8308908;28;20491;-57
2023/12/11 04:08:39;;;;;;;23.08;2.67;;;;;;;13.83;74.28;99001.75;8305279;28;20142;-57
2023/12/11 04:12:42;;;;;;;21.33;3.00;;;;;;;13.94;73.43;98981.38;8306796;28;20124;-58
2023/12/11 04:16:43;;;;;;;18.60;2.33;;;;;;;13.91;73.79;98969.03;8349267;28;20151;-58
2023/12/11 04:20:43;;;;;;;17.98;2.72;;;;;;;13.79;74.07;98957.03;8362210;28;20053;-58
2023/12/11 04:24:44;;;;;;;18.20;1.88;;;;;;;13.74;74.39;98960.34;8360337;28;20079;-59
2023/12/11 04:28:44;;;;;;;19.92;2.75;;;;;;;13.73;74.22;98958.66;8359388;28;20052;-58
2023/12/11 04:32:45;;;;;;;20.77;2.95;;;;;;;13.86;73.57;98963.34;8348924;28;20049;-57
2023/12/11 04:36:45;;;;;;;15.50;2.40;;;;;;;13.90;73.68;98970.03;8304063;28;20041;-57
2023/12/11 04:40:45;;;;;;;22.88;2.85;;;;;;;13.97;73.69;98970.94;8308660;28;20059;-58
2023/12/11 04:44:46;;;;;;;9.70;2.15;;;;;;;14.06;73.31;98969.72;8308366;28;20451;-58
2023/12/11 04:48:46;;;;;;;16.85;2.35;;;;;;;14.05;74.18;98984.34;8306377;28;20041;-60
2023/12/11 04:52:47;;;;;;;14.02;1.88;;;;;;;13.93;76.44;98963.41;8296195;28;20504;-58
2023/12/11 04:56:48;;;;;;;22.52;2.38;;;;;;;13.81;77.49;98954.94;8304134;28;20036;-58
2023/12/11 05:00:48;;;;;;;16.63;2.10;;;;;;;13.76;78.19;98946.56;8308245;28;20056;-57
2023/12/11 05:04:49;;;;;;;19.92;2.45;;;;;;;13.73;78.17;98960.53;8323110;28;20050;-57
2023/12/11 05:08:49;;;;;;;17.02;2.10;;;;;;;13.72;77.78;98950.69;8355403;28;20054;-57
2023/12/11 05:12:49;;;;;;;16.15;2.45;;;;;;;13.88;77.76;98970.25;8356028;28;20045;-57
2023/12/11 05:16:50;;;;;;;15.18;1.90;;;;;;;13.74;79.02;98959.50;8361050;28;20040;-56
2023/12/11 05:20:50;;;;;;;15.10;1.83;;;;;;;13.66;80.20;98956.91;8360256;28;20466;-57
2023/12/11 05:24:51;;;;;;;15.63;2.28;;;;;;;13.52;81.96;98957.88;8358697;28;20037;-57
2023/12/11 05:28:51;;;;;;;15.68;2.85;;;;;;;13.56;80.48;98951.00;8352387;28;20048;-57
2023/12/11 05:32:52;;;;;;;13.40;1.50;;;;;;;13.70;79.16;98958.22;8353734;28;20053;-58
2023/12/11 05:36:52;;;;;;;8.95;1.63;;;;;;;13.74;79.68;98964.94;8355672;28;20506;-58
2023/12/11 05:40:53;;;;;;;20.13;1.75;;;;;;;13.69;80.09;98961.97;8352490;28;20200;-58
2023/12/11 05:44:53;;;;;;;14.98;1.55;;;;;;;13.53;81.60;98963.09;8349164;28;20051;-58
2023/12/11 05:48:53;;;;;;;13.68;1.95;;;;;;;13.41;83.01;98985.56;8352498;28;20041;-58
2023/12/11 05:52:54;;;;;;;15.27;1.92;;;;;;;13.41;83.43;98986.41;8354459;28;20117;-59
2023/12/11 05:56:55;;;;;;;15.80;1.98;;;;;;;13.25;84.18;98980.41;8343653;28;20039;-58
2023/12/11 06:00:55;;;;;;;15.77;2.22;;;;;;;13.26;83.48;98984.78;8342700;28;20038;-57
2023/12/11 06:04:56;;;;;;;9.90;1.60;;;;;;;13.20;84.12;98999.97;8345096;28;20126;-59
2023/12/11 06:08:56;;;;;;;20.17;2.22;;;;;;;13.05;84.93;98990.25;8293892;28;20692;-56
2023/12/11 06:12:57;;;;;;;14.57;2.85;;;;;;;12.96;85.50;98975.09;8300337;28;20335;-57
2023/12/11 06:16:57;;;;;;;11.77;1.50;;;;;;;13.09;85.46;98983.38;8318906;28;20056;-57
2023/12/11 06:20:58;;;;;;;9.35;2.00;;;;;;;13.08;85.46;98978.97;8356480;28;20071;-57
2023/12/11 06:24:59;;;;;;;16.25;2.20;;;;;;;13.00;86.19;98963.69;8314368;28;20032;-57
2023/12/11 06:29:00;;;;;;;6.45;1.35;;;;;;;12.98;86.53;98964.88;8318757;28;20036;-57
2023/12/11 06:33:01;;;;;;;17.55;2.30;;;;;;;12.96;86.59;98965.06;8317690;28;20367;-56
2023/12/11 06:37:01;;;;;;;11.00;1.38;;;;;;;12.89;86.67;98960.59;8315134;28;20072;-56
2023/12/11 06:41:02;;;;;;;15.15;1.70;;;;;;;12.85;86.45;98972.88;8277386;28;20282;-56
2023/12/11 06:45:03;;;;;;;12.93;1.67;;;;;;;12.86;86.27;98966.41;8297101;28;20114;-58
2023/12/11 06:49:04;;;;;;;12.57;1.90;;;;;;;12.93;85.54;98980.91;8309648;28;20514;-58
2023/12/11 06:53:04;;;;;;;10.43;2.13;;;;;;;12.96;85.35;98975.09;8348183;28;20045;-57
2023/12/11 06:57:05;;;;;;;16.02;2.47;;;;;;;12.99;85.21;98980.13;8353775;28;20180;-57
2023/12/11 07:01:08;;;;;;;16.98;3.00;;;;;;;12.96;85.42;98967.78;8353214;28;20224;-56
2023/12/11 07:05:09;;;;;;;23.63;2.53;;;;;;;13.06;85.19;98972.94;8354114;28;20449;-59
2023/12/11 07:09:10;;;;;;;13.90;2.13;;;;;;;13.17;84.58;98967.81;8354902;28;20142;-57
2023/12/11 07:13:10;;;;;;;16.65;2.63;;;;;;;13.32;83.49;98970.44;8352321;28;20499;-59
2023/12/11 07:17:11;;;;;;;15.20;2.22;;;;;;;13.39;83.31;98976.78;8354224;28;20345;-57
2023/12/11 07:21:11;;;;;;;14.45;1.98;;;;;;;13.36;83.87;98972.56;8353624;28;20044;-64
2023/12/11 07:25:12;;;;;;;12.77;1.60;;;;;;;13.37;84.40;98974.25;8348601;28;20048;-58
2023/12/11 07:29:13;;;;;;;20.08;2.80;;;;;;;13.41;84.58;98993.69;8352071;28;20061;-62
2023/12/11 07:33:13;;;;;;;16.85;2.58;;;;;;;13.36;84.50;98972.56;8354481;28;20494;-58
2023/12/11 07:37:14;;;;;;;12.68;2.28;;;;;;;13.40;85.13;99000.16;8354645;28;20037;-59
2023/12/11 07:41:19;;;;;;;18.15;2.63;;;;;;;13.42;85.49;98995.41;8354843;28;20037;-58
2023/12/11 07:45:22;;;;;;;16.05;2.15;;;;;;;13.46;85.08;98999.38;8352263;28;20045;-59
2023/12/11 07:49:22;;;;;;;16.95;2.30;;;;;;;13.45;84.42;98993.09;8348307;28;20487;-59
2023/12/11 07:53:23;;;;;;;22.63;2.67;;;;;;;13.49;84.39;99005.28;8330009;28;20399;-60
2023/12/11 07:57:25;;;;;;;20.80;2.28;;;;;;;13.53;83.79;99000.28;8353930;28;20403;-58
2023/12/11 08:01:30;;;;;;;16.17;2.67;;;;;;;13.59;83.50;99015.78;8352202;28;20042;-56
2023/12/11 08:05:30;;;;;;;16.30;2.10;;;;;;;13.71;82.36;99014.22;8348637;28;20048;-57
2023/12/11 08:09:36;;;;;;;15.75;2.70;;;;;;;13.70;82.04;99023.41;8353723;28;20117;-57
2023/12/11 08:13:36;;;;;;;21.80;2.40;;;;;;;13.71;81.89;99014.22;8351293;28;20040;-57
2023/12/11 08:17:37;;;;;;;10.68;2.17;;;;;;;13.78;80.47;99012.38;8352339;28;20066;-57
2023/12/11 08:21:37;;;;;;;16.20;2.03;;;;;;;13.83;79.72;99018.06;8344656;28;20045;-58
2023/12/11 08:25:38;;;;;;;24.95;3.40;;;;;;;13.88;79.05;99010.19;8350113;28;20606;-56
2023/12/11 08:29:38;;;;;;;19.10;2.92;;;;;;;13.99;77.72;99012.31;8350676;28;20046;-59
2023/12/11 08:33:38;;;;;;;12.82;2.50;;;;;;;14.05;76.25;99003.38;8348905;28;20608;-57
2023/12/11 08:37:39;;;;;;;16.55;2.45;;;;;;;14.15;75.82;99020.16;8355018;28;20132;-56
2023/12/11 08:41:39;;;;;;;24.77;2.70;;;;;;;14.18;75.44;99011.59;8357575;28;20048;-56
2023/12/11 08:45:40;;;;;;;18.30;2.20;;;;;;;14.27;75.16;99028.66;8361700;28;20037;-58
2023/12/11 08:49:41;;;;;;;11.45;2.70;;;;;;;14.27;74.70;99021.31;8359085;28;20088;-59
2023/12/11 08:53:41;;;;;;;18.20;2.40;;;;;;;14.42;72.84;99002.16;8357036;28;20152;-62
2023/12/11 08:57:44;;;;;;;16.10;2.63;;;;;;;14.43;73.12;99015.56;8358608;28;20088;-57
2023/12/11 09:01:45;;;;;;;9.65;1.80;;;;;;;14.48;72.42;99028.53;8358337;28;20041;-57
2023/12/11 09:05:45;;;;;;;15.55;2.00;;;;;;;14.59;73.04;99039.69;8374896;28;20036;-57
2023/12/11 09:09:45;;;;;;;17.90;2.33;;;;;;;14.51;72.54;99028.13;8364116;28;20041;-57
2023/12/11 09:13:46;;;;;;;14.35;2.03;;;;;;;14.59;72.00;99047.00;8356978;28;20066;-57
2023/12/11 09:17:46;;;;;;;18.13;2.20;;;;;;;14.60;72.32;99054.94;8357345;28;20044;-57
2023/12/11 09:21:47;;;;;;;20.17;3.00;;;;;;;14.57;73.27;99082.56;8355943;28;20041;-57
2023/12/11 09:25:47;;;;;;;11.68;1.67;;;;;;;14.53;74.49;99092.16;8356632;28;20045;-58
2023/12/11 09:29:48;;;;;;;16.15;2.55;;;;;;;14.53;74.68;99100.31;8357242;28;20041;-57
2023/12/11 09:33:49;;;;;;;17.70;2.10;;;;;;;14.51;74.84;99099.66;8357753;28;20033;-57
2023/12/11 09:37:49;;;;;;;20.08;3.10;;;;;;;14.55;75.26;99105.56;8355290;28;20080;-56
2023/12/11 09:41:50;;;;;;;12.75;1.75;;;;;;;14.55;74.23;99105.56;8358428;28;20354;-56
2023/12/11 09:45:51;;;;;;;13.32;1.67;;;;;;;14.60;73.79;99119.38;8356101;28;20041;-58
2023/12/11 09:49:52;;;;;;;15.18;2.53;;;;;;;14.66;74.01;99124.88;8355985;28;20041;-58
2023/12/11 09:53:54;;;;;;;17.27;2.72;;;;;;;14.59;74.16;99134.88;8354265;28;20034;-57
2023/12/11 09:57:55;;;;;;;15.00;1.95;;;;;;;14.57;74.23;99136.09;8357233;28;20128;-56
2023/12/11 10:01:57;;;;;;;19.05;2.08;;;;;;;14.58;73.96;99130.47;8354871;28;20456;-65
2023/12/11 10:05:59;;;;;;;17.30;2.00;;;;;;;14.63;74.12;99146.19;8387071;28;20052;-57
2023/12/11 10:10:26;;;;;;;13.35;2.13;;;;;;;14.68;73.43;99146.44;8357117;28;20502;-57
2023/12/11 10:14:28;;;;;;;8.02;1.58;;;;;;;14.63;73.48;99157.06;8354164;28;20037;-56
2023/12/11 10:18:29;;;;;;;17.33;2.50;;;;;;;14.64;73.41;99159.59;8342199;28;20051;-57
2023/12/11 10:22:31;;;;;;;21.75;2.38;;;;;;;14.54;72.30;99148.22;8352626;28;20037;-57
2023/12/11 10:26:33;;;;;;;12.02;1.85;;;;;;;14.62;72.76;99150.81;8355908;28;20036;-57
2023/12/11 10:30:54;;;;;;;15.85;2.47;;;;;;;14.67;72.24;99156.47;8353330;28;20484;-58
2023/12/11 10:34:54;;;;;;;11.52;2.65;;;;;;;14.65;72.55;99157.72;8353135;28;20038;-58
2023/12/11 10:39:07;;;;;;;18.27;2.70;;;;;;;14.59;73.16;99167.53;8355812;28;20055;-62
2023/12/11 10:43:08;;;;;;;11.90;1.63;;;;;;;14.61;73.27;99168.13;8355109;28;20074;-57
2023/12/11 10:47:09;;;;;;;13.30;1.77;;;;;;;14.67;73.07;99175.50;8354214;28;20517;-58
2023/12/11 10:51:10;;;;;;;12.93;2.03;;;;;;;14.81;72.84;99171.84;8349630;28;20064;-58
2023/12/11 10:55:10;;;;;;;20.92;2.65;;;;;;;15.35;71.86;99183.63;8352713;28;20041;-57
2023/12/11 10:59:11;;;;;;;13.40;1.85;;;;;;;14.91;73.08;99166.88;8353175;28;20045;-57
2023/12/11 11:03:13;;;;;;;18.02;2.65;;;;;;;14.67;74.23;99170.06;8352326;28;20044;-57
2023/12/11 11:07:25;;;;;;;16.67;2.00;;;;;;;14.69;74.24;99188.91;8355212;28;20065;-58
2023/12/11 11:11:29;;;;;;;17.13;2.88;;;;;;;15.09;73.33;99191.66;8348664;28;20044;-57
2023/12/11 11:15:29;;;;;;;11.48;1.70;;;;;;;14.96;73.62;99199.78;8349388;28;20036;-58
2023/12/11 11:19:30;;;;;;;15.90;2.22;;;;;;;14.66;73.54;99209.19;8353522;28;20041;-59
2023/12/11 11:23:41;;;;;;;16.20;2.85;;;;;;;14.51;75.57;99203.00;8350892;28;20117;-61
2023/12/11 11:27:42;;;;;;;12.20;1.98;;;;;;;14.54;76.03;99212.66;8350560;28;20033;-57
2023/12/11 11:31:52;;;;;;;20.35;2.58;;;;;;;14.70;75.16;99215.91;8352521;28;20479;-58
2023/12/11 11:35:53;;;;;;;14.07;2.22;;;;;;;14.59;76.01;99227.34;8354037;28;20491;-57
2023/12/11 11:39:58;;;;;;;13.65;2.35;;;;;;;15.13;74.54;99228.31;8351580;28;20041;-60
2023/12/11 11:44:06;;;;;;;15.07;2.05;;;;;;;15.70;71.51;99228.00;8353721;28;20040;-60
2023/12/11 11:48:06;;;;;;;18.90;2.17;;;;;;;15.96;71.64;99228.06;8364346;28;20483;-60
2023/12/11 11:52:09;;;;;;;12.90;2.30;;;;;;;15.74;72.30;99245.63;8369229;28;20505;-60
2023/12/11 11:56:11;;;;;;;14.45;2.22;;;;;;;15.47;74.07;99239.22;8369516;28;20045;-60
2023/12/11 12:00:12;;;;;;;16.15;1.77;;;;;;;15.32;74.93;99252.13;8371056;28;20040;-60
2023/12/11 12:04:27;;;;;;;16.70;2.83;;;;;;;15.09;75.20;99246.13;8368287;28;20124;-62
2023/12/11 12:08:27;;;;;;;16.27;2.20;;;;;;;14.85;76.97;99253.91;8366075;28;20044;-61
2023/12/11 12:12:28;;;;;;;17.02;2.22;;;;;;;14.98;76.06;99260.25;8367970;28;20040;-61
2023/12/11 12:16:28;;;;;;;16.88;2.17;;;;;;;14.77;76.63;99257.63;8401691;28;20048;-61
2023/12/11 12:20:29;;;;;;;13.90;2.17;;;;;;;14.49;77.71;99275.78;8376139;28;20052;-59
2023/12/11 12:24:30;;;;;;;14.13;2.28;;;;;;;14.39;78.26;99279.91;8373905;28;20033;-59
2023/12/11 12:28:31;;;;;;;14.68;3.63;;;;;;;14.50;78.40;99277.50;8373625;28;20037;-59
2023/12/11 12:32:35;;;;;;;16.67;2.10;;;;;;;14.65;77.74;99280.97;8408921;28;20132;-60
2023/12/11 12:36:36;;;;;;;15.65;3.38;;;;;;;14.68;77.54;99285.16;8381501;28;20032;-57
2023/12/11 12:40:37;;;;;;;16.73;2.17;;;;;;;14.82;77.74;99287.78;8356906;28;20053;-59
2023/12/11 12:44:38;;;;;;;18.50;2.55;;;;;;;14.79;78.80;99298.25;8356658;28;20037;-61
2023/12/11 12:48:39;;;;;;;20.20;3.00;;;;;;;14.59;81.16;99297.22;8358870;28;20045;-59
2023/12/11 12:52:40;;;;;;;17.40;2.20;;;;;;;14.45;82.37;99306.31;8356169;28;20051;-58
2023/12/11 12:56:42;;;;;;;11.15;2.55;;;;;;;14.32;84.51;99323.31;8357008;28;20041;-57
2023/12/11 13:00:42;;;;;;;20.42;2.45;;;;;;;14.12;86.21;99326.84;8359167;28;20122;-59
2023/12/11 13:04:51;;;;;;;16.48;2.90;;;;;;;13.95;87.41;99337.09;8355692;28;20029;-60
2023/12/11 13:08:52;;;;;;;19.63;2.97;;;;;;;13.70;90.10;99333.03;8360379;28;21169;-60
2023/12/11 13:12:52;;;;;;;19.05;3.05;;;;;;;13.44;94.74;99366.09;8359166;28;20045;-59
2023/12/11 13:16:55;;;;;;;9.40;1.27;;;;;;;12.82;97.57;99380.06;8349490;28;20157;-61
2023/12/11 13:20:55;;;;;;;6.05;1.00;;;;;;;12.57;99.83;99387.56;8349071;28;20079;-57
2023/12/11 13:24:56;;;;;;;7.13;1.20;;;;;;;12.45;100.00;99382.75;8347628;28;20071;-58
2023/12/11 13:28:56;;;;;;;10.18;1.48;;;;;;;12.34;100.00;99386.72;8369781;28;20033;-57
2023/12/11 13:32:58;;;;;;;5.00;1.10;;;;;;;12.30;100.00;99401.66;8371791;28;20115;-61
2023/12/11 13:36:59;;;;;;;5.93;1.02;;;;;;;12.25;100.00;99400.47;8371987;28;20033;-56
2023/12/11 13:40:59;;;;;;;6.85;1.15;;;;;;;12.25;100.00;99397.75;8376634;28;20080;-56
2023/12/11 13:44:59;;;;;;;5.82;1.10;;;;;;;12.19;99.14;99410.16;8373445;28;20033;-57
2023/12/11 13:49:00;;;;;;;5.38;1.40;;;;;;;12.20;98.00;99408.31;8372342;28;20025;-57
2023/12/11 13:53:01;;;;;;;3.13;1.13;;;;;;;12.17;96.86;99427.63;8353868;28;20044;-58
2023/12/11 13:57:01;;;;;;;4.82;1.30;;;;;;;12.15;96.38;99425.09;8364179;28;20094;-58
2023/12/11 14:01:02;;;;;;;4.85;1.02;;;;;;;12.06;96.01;99428.00;8364539;28;20116;-60
2023/12/11 14:05:03;;;;;;;4.65;1.15;;;;;;;12.11;96.70;99431.06;8329547;28;20087;-58
2023/12/11 14:09:04;;;;;;;4.32;1.05;;;;;;;12.09;96.71;99441.19;8355656;28;20045;-57
2023/12/11 14:13:04;;;;;;;4.25;1.67;;;;;;;12.11;96.63;99460.84;8359162;28;20057;-58
2023/12/11 14:17:05;;;;;;;6.95;1.27;;;;;;;12.01;95.83;99454.81;8357256;28;20040;-59
2023/12/11 14:21:05;;;;;;;3.75;1.30;;;;;;;12.07;95.49;99465.75;8354235;28;20056;-57
2023/12/11 14:25:08;;;;;;;9.55;1.23;;;;;;;12.10;95.04;99472.72;8353186;28;20431;-57
2023/12/11 14:29:08;;;;;;;4.13;1.05;;;;;;;12.06;94.53;99483.03;8354250;28;20166;-58
2023/12/11 14:33:08;;;;;;;6.68;1.38;;;;;;;12.09;94.33;99481.84;8354393;28;20033;-57
2023/12/11 14:37:10;;;;;;;7.72;1.10;;;;;;;12.00;94.60;99477.47;8355468;28;20536;-58
2023/12/11 14:41:12;;;;;;;6.28;1.30;;;;;;;12.04;94.98;99489.66;8358767;28;20064;-58
2023/12/11 14:45:13;;;;;;;4.15;0.85;;;;;;;12.04;93.09;99486.97;8356993;28;20044;-58
2023/12/11 14:49:13;;;;;;;3.83;0.80;;;;;;;12.07;92.49;99492.03;8371282;28;20028;-58
2023/12/11 14:53:14;;;;;;;6.72;0.90;;;;;;;12.11;92.20;99504.19;8358184;28;20029;-58
2023/12/11 14:57:14;;;;;;;6.93;0.93;;;;;;;12.07;93.80;99502.88;8355380;28;20033;-60
2023/12/11 15:01:15;;;;;;;10.98;0.93;;;;;;;11.95;95.93;99518.63;8353654;28;20041;-56
2023/12/11 15:05:17;;;;;;;8.20;1.38;;;;;;;11.83;98.93;99522.72;8354315;28;20056;-59
2023/12/11 15:09:17;;;;;;;5.13;0.82;;;;;;;11.75;100.00;99526.28;8350812;28;20087;-58
2023/12/11 15:13:18;;;;;;;8.50;1.38;;;;;;;11.71;100.00;99533.06;8350496;28;20043;-58
2023/12/11 15:17:18;;;;;;;7.00;1.00;;;;;;;11.61;100.00;99534.22;8353640;28;20144;-56
2023/12/11 15:21:19;;;;;;;6.78;1.25;;;;;;;11.59;100.00;99537.13;8353054;28;20141;-56
2023/12/11 15:25:19;;;;;;;3.88;1.35;;;;;;;11.57;100.00;99547.28;8344124;28;20028;-56
2023/12/11 15:29:20;;;;;;;7.38;1.30;;;;;;;11.56;100.00;99542.03;8349237;28;20530;-57
2023/12/11 15:33:20;;;;;;;8.80;2.30;;;;;;;11.54;100.00;99554.88;8350544;28;20163;-56
2023/12/11 15:37:21;;;;;;;7.05;1.30;;;;;;;11.48;100.00;99542.91;8353632;28;20037;-56
2023/12/11 15:41:22;;;;;;;8.18;1.52;;;;;;;11.44;100.00;99560.47;8368059;28;20047;-56
2023/12/11 15:45:22;;;;;;;9.98;1.75;;;;;;;11.50;100.00;99561.66;8368726;28;20040;-55
2023/12/11 15:49:22;;;;;;;9.85;1.80;;;;;;;11.51;100.00;99558.78;8374930;28;20111;-56
2023/12/11 15:53:23;;;;;;;13.60;2.13;;;;;;;11.45;100.00;99578.41;8376632;28;20043;-56
2023/12/11 15:57:23;;;;;;;6.05;1.77;;;;;;;11.47;100.00;99580.94;8373415;28;20479;-56
2023/12/11 16:01:25;;;;;;;13.20;2.58;;;;;;;11.53;100.00;99581.09;8375245;28;20096;-57
2023/12/11 16:05:26;;;;;;;11.93;2.50;;;;;;;11.54;100.00;99585.53;8377710;28;20434;-56
2023/12/11 16:09:26;;;;;;;10.40;3.30;;;;;;;11.55;100.00;99595.31;8377589;28;20044;-56
2023/12/11 16:13:27;;;;;;;14.95;3.78;;;;;;;11.57;100.00;99593.31;8359480;28;20528;-57
2023/12/11 16:17:28;;;;;;;12.80;3.03;;;;;;;11.59;100.00;99596.66;8376656;28;20406;-56
2023/12/11 16:21:28;;;;;;;13.95;2.58;;;;;;;11.56;100.00;99597.00;8362988;28;20041;-57
2023/12/11 16:25:29;;;;;;;24.30;4.28;;;;;;;11.65;100.00;99606.84;8354092;28;20503;-56
2023/12/11 16:29:29;;;;;;;21.25;3.83;;;;;;;11.76;100.00;99592.97;8355060;28;20041;-61
2023/12/11 16:33:30;;;;;;;18.23;3.05;;;;;;;11.93;100.00;99584.81;8354631;28;20036;-58
2023/12/11 16:37:31;;;;;;;12.32;3.15;;;;;;;12.05;99.76;99586.16;8343985;28;20682;-57
2023/12/11 16:41:32;;;;;;;13.82;2.60;;;;;;;12.18;97.21;99587.31;8351406;28;20498;-57
2023/12/11 16:45:32;;;;;;;15.15;4.25;;;;;;;12.35;95.48;99596.25;8336913;28;20041;-58
2023/12/11 16:49:33;;;;;;;17.77;2.15;;;;;;;12.49;94.21;99595.50;8348422;28;20072;-58
2023/12/11 16:53:33;;;;;;;13.70;2.63;;;;;;;12.65;93.85;99606.28;8353803;28;20127;-57
2023/12/11 16:57:34;;;;;;;12.35;2.20;;;;;;;12.68;93.85;99600.50;8347603;28;20041;-58
2023/12/11 17:01:34;;;;;;;13.25;2.78;;;;;;;12.65;94.23;99606.28;8343244;28;20037;-58
2023/12/11 17:05:34;;;;;;;18.25;2.53;;;;;;;12.60;95.06;99612.22;8355991;28;20033;-58
2023/12/11 17:09:37;;;;;;;15.85;2.75;;;;;;;12.61;96.02;99621.22;8349221;28;20044;-58
2023/12/11 17:13:37;;;;;;;19.80;2.78;;;;;;;12.56;98.18;99629.06;8347730;28;20037;-63
2023/12/11 17:17:37;;;;;;;23.73;3.03;;;;;;;12.47;99.98;99635.50;8353684;28;20052;-59
2023/12/11 17:21:41;;;;;;;13.88;2.50;;;;;;;12.34;100.00;99635.19;8352905;28;20143;-58
2023/12/11 17:25:43;;;;;;;16.13;3.17;;;;;;;12.28;100.00;99647.56;8355637;28;20079;-59
2023/12/11 17:29:43;;;;;;;21.42;3.15;;;;;;;12.22;100.00;99642.00;8358742;28;20128;-60
2023/12/11 17:33:44;;;;;;;27.02;3.60;;;;;;;12.10;100.00;99648.81;8356763;28;20408;-59
2023/12/11 17:37:44;;;;;;;23.05;3.40;;;;;;;12.06;100.00;99656.44;8356107;28;20462;-59
2023/12/11 17:41:44;;;;;;;17.63;2.50;;;;;;;12.04;100.00;99649.50;8354387;28;20048;-59
2023/12/11 17:45:45;;;;;;;21.35;3.30;;;;;;;12.04;100.00;99660.34;8356277;28;20123;-56
2023/12/11 17:49:45;;;;;;;30.90;4.05;;;;;;;12.06;100.00;99671.81;8351268;28;20406;-59
2023/12/11 17:53:46;;;;;;;16.67;3.20;;;;;;;12.04;100.00;99666.56;8356043;28;20169;-65
2023/12/11 17:57:47;;;;;;;22.33;5.13;;;;;;;12.05;100.00;99662.88;8353333;28;20072;-59
2023/12/11 18:01:47;;;;;;;17.63;4.95;;;;;;;12.08;100.00;99672.50;8353444;28;20128;-58
2023/12/11 18:05:48;;;;;;;17.63;3.67;;;;;;;12.11;100.00;99683.00;8325318;28;20054;-58
2023/12/11 18:09:48;;;;;;;24.83;3.53;;;;;;;12.17;100.00;99682.31;8319262;28;20061;-59
2023/12/11 18:13:49;;;;;;;12.13;3.13;;;;;;;12.22;97.69;99688.06;8343063;28;20559;-60
2023/12/11 18:17:50;;;;;;;17.95;3.70;;;;;;;12.26;96.55;99697.56;8344686;28;20120;-60
2023/12/11 18:21:51;;;;;;;14.18;2.60;;;;;;;12.26;95.66;99700.28;8352227;28;20468;-58
2023/12/11 18:25:51;;;;;;;20.73;3.72;;;;;;;12.28;95.32;99706.34;8345047;28;20401;-59
2023/12/11 18:29:52;;;;;;;15.80;2.78;;;;;;;12.29;95.55;99710.78;8355348;28;20049;-58
2023/12/11 18:33:52;;;;;;;17.52;2.40;;;;;;;12.18;94.68;99724.66;8349785;28;20388;-57
2023/12/11 18:37:53;;;;;;;9.48;3.05;;;;;;;12.13;94.91;99724.34;8353240;28;20041;-57
2023/12/11 18:41:55;;;;;;;13.15;2.70;;;;;;;12.19;95.08;99726.34;8350122;28;20310;-57